Vernon, Illinois
Current Conditions -  °F | °C
As of 2:15 PM on Wednesday 28 Jan 2015 (Local Time) from KSLO Reporting Station
Clear Clear  
Wind Chill: 38°   Ceiling: Unl
Heat Index: 44°   Visibility: 10mi
Dew Point: 31°   Wind: 12mph
Humidity: 60%   Direction: 150°SSE
Pressure: 30.13"   Gusts: 17mph
Location:  38.8°N, 89.09°W
Report Text: KSLO 282015Z AUTO 15010G15KT 10SM CLR 07/00 A3013 RMK AO2 T00681005
Loading
Personal Weather Stations






























Interactive Weather Map New forecast layout! Learn more

10-Day Weather Forecast

Advertisements
Track Severe Weather on mobile